Margaret F. Cooper — WDB9825 — position and weather

sailwx.info

Track history (hours):
 
Tides and Currents Weather Stations Pressure Air Temp Water Temp Dewpoint Dewpoint Depression Visibility Wind Speed Wind Dir Waves Ship Positions

Margaret F. Cooper

Owner: CRESCENT TOWING & SALVAGE CO INC, New Orleans, LA. More information available from US FCC via Universal Licensing System and Coast Guard Vessel Documentation Center.

Last reported at 2014-Oct-24 14:23 UTC. Time now 2014-Oct-24 15:35 UTC.
Position N 30°03' W 090°34'.

Length 30 m; draft 4.5 m.

Type: Tug. MMSI: 366983480.

Date/timePositionNaut miles runAvg speedWind from/ knotsBaromVisibWave heightAir tempDewpointWater temp
2014-Oct-24 14:23N 30°03' W 090°34'1 0.7
2014-Oct-24 13:28N 30°03' W 090°35'4 0.2
2014-Oct-23 12:27N 30°03' W 090°39'1 0.5
2014-Oct-23 10:22N 30°03' W 090°40'0 0.0
2014-Oct-23 07:33N 30°03' W 090°40'0 0.0
2014-Oct-23 04:22N 30°03' W 090°40'0 0.0
2014-Oct-22 12:33N 30°03' W 090°40'15 0.6
2014-Oct-21 11:04N 30°08' W 090°56'6 1.6
2014-Oct-21 07:27N 30°04' W 090°52'5 5.2
2014-Oct-21 06:25N 30°01' W 090°47'11 2.2
2014-Oct-21 01:30N 30°03' W 090°35'  
2014-Oct-18 03:03N 30°02' W 090°42'  
2014-Oct-15 13:06N 30°02' W 090°42'0 0.0
2014-Oct-15 12:32N 30°02' W 090°42'0 0.0
2014-Oct-15 09:29N 30°02' W 090°42'0 0.0
2014-Oct-15 08:33N 30°02' W 090°42'0 0.0
2014-Oct-15 07:33N 30°02' W 090°42'2 0.5
2014-Oct-15 02:32N 30°01' W 090°44'  
Track history (hours):
 
Tides and Currents Weather Stations Pressure Air Temp Water Temp Dewpoint Dewpoint Depression Visibility Wind Speed Wind Dir Waves Ship Positions

Margaret F. Cooper

Owner: CRESCENT TOWING & SALVAGE CO INC, New Orleans, LA. More information available from US FCC via Universal Licensing System and Coast Guard Vessel Documentation Center.

Last reported at 2014-Oct-24 14:23 UTC. Time now 2014-Oct-24 15:35 UTC.
Position N 30°03' W 090°34'.

Length 30 m; draft 4.5 m.

Type: Tug. MMSI: 366983480.

Date/timePositionNaut miles runAvg speedWind from/ knotsBaromVisibWave heightAir tempDewpointWater temp
2014-Oct-24 14:23N 30°03' W 090°34'1 0.7
2014-Oct-24 13:28N 30°03' W 090°35'4 0.2
2014-Oct-23 12:27N 30°03' W 090°39'1 0.5
2014-Oct-23 10:22N 30°03' W 090°40'0 0.0
2014-Oct-23 07:33N 30°03' W 090°40'0 0.0
2014-Oct-23 04:22N 30°03' W 090°40'0 0.0
2014-Oct-22 12:33N 30°03' W 090°40'15 0.6
2014-Oct-21 11:04N 30°08' W 090°56'6 1.6
2014-Oct-21 07:27N 30°04' W 090°52'5 5.2
2014-Oct-21 06:25N 30°01' W 090°47'11 2.2
2014-Oct-21 01:30N 30°03' W 090°35'  
2014-Oct-18 03:03N 30°02' W 090°42'  
2014-Oct-15 13:06N 30°02' W 090°42'0 0.0
2014-Oct-15 12:32N 30°02' W 090°42'0 0.0
2014-Oct-15 09:29N 30°02' W 090°42'0 0.0
2014-Oct-15 08:33N 30°02' W 090°42'0 0.0
2014-Oct-15 07:33N 30°02' W 090°42'2 0.5
2014-Oct-15 02:32N 30°01' W 090°44'  

Dump ship's entire track history